London Airport
CYXU : now visible

Airfield :











YOU CAN JOIN US ON...

 
LOGIN :

Register | Disclaimer

   EN    FR    IT 

 









Legend :    VFR   Marginal VFR   IFR   Intensive IFR   Very Intensive IFR
Visi :
Ceiling :
>= 8 km
>= 3000ft
5 to 8 km
1000 to 3000 ft
1500m to 5 km
500 to 1000 ft
800 to 1500m
200 to 500 ft
< 800m
< 200 ft
Symbols :   Thunderstorms  Fog  Heavy snow  Heavy precipitations  Wind > 20 kt






- Airport Elevation : 912 ft
- IATA code : YXU


CYXU - London

CURRENT METAR :
  • 181200Z 11015KT 1SM R15/P6000FT/D -SN DRSN BKN006 OVC017 M07/M08 A3015 RMK SN4SF2SC2 PRESFR SLP229

EXPIRED METARs :
  • 181144Z 11015G21KT 1SM R15/P6000FT/D -SN DRSN SCT009 OVC021 M07/M08 A3017 RMK SN2SF2SC4 SLP234
  • 181121Z 10017G22KT 2SM -SN DRSN SCT008 OVC024 M07/M08 A3016 RMK SN2SF1SC5 PRESFR SLP232
  • 181100Z 11020KT 3SM -SN DRSN FEW008 OVC020 M07/M09 A3018 RMK SF1SC7 SLP239
  • 181019Z 10019KT 3SM -SN DRSN FEW008 OVC022 M07/M09 A3022 RMK SF1SC7 SLP254
  • 181000Z 10018G28KT 15SM -SN DRSN OVC034 M07/M09 A3024 RMK SC8 PRESFR SLP259

TAF TAF CYXU
Valid from the 18 at 12:00 until the 19 at 12:00 UTC


181139Z 1812/1912 11013G23KT 2SM -SN OVC020
TEMPO 1812/1814 11/2SM -SN VV012
FM181400 14013G23KT 3/4SM -SN VV006
PROB30 1815/1820 3/8SM SN VV004
FM182000 17013G23KT 1SM -SNRA BR OVC005
FM182200 19012G22KT 2SM -RA BR OVC005
FM182300 24015G28KT 3SM -SHRA BR OVC007
PROB30 1823/1902 2SM -SHRASN BR OVC005
FM190200 26018G32KT P6SM -SHSN BKN012 OVC030
FM190800 27015G25KT 4SM -SHSN OVC015 RMK NXT FCST BY 181800Z



MET'MAP, your aeronautical weather chart ! - Copyright ORBIFLY December 2007 - Disclaimer

ORBIFLY MET'MAP TEAM :

Programming & Development : Alexandra Zaïnal
Concept & original design : Baudouin d'Aumeries
Assistance for programming : Marc-Olivier Méhu
Technical & hardware support : Manuel Goepfert

Contact : metmap@orbifly.com




SOURCES & CREDITS :

   NOAA       Earth
Advisory